Home > Products > Valid Products > TAF

000
FTUS44 KCRP 301700
TAFCRP
TAF
KCRP 301722Z 3018/3118 04006KT P6SM FEW010 SCT020 BKN030
     FM310300 10007KT P6SM BKN015=



000
FTUS44 KCRP 301700
TAFVCT
TAF
KVCT 301722Z 3018/3118 05004KT P6SM BKN020
     FM310800 03003KT 5SM BR SCT015 BKN050=



000
FTUS44 KCRP 301700
TAFLRD
TAF
KLRD 301722Z 3018/3118 12004KT P6SM SKC
     FM310900 14006KT P6SM FEW015 SCT050=



000
FTUS44 KCRP 301700
TAFALI
TAF
KALI 301722Z 3018/3118 05007KT P6SM SCT015 BKN030
     FM310300 10004KT P6SM FEW015 SCT060=



000
FTUS44 KCRP 301500 AAA
TAFVCT
TAF AMD
KVCT 301501Z 3015/3112 03006KT P6SM FEW018
     FM301800 06005KT P6SM SCT035
     FM310800 03003KT 5SM BR SCT015 BKN050=



000
FTUS44 KCRP 301500 AAA
TAFCRP
TAF AMD
KCRP 301500Z 3015/3112 04006KT P6SM FEW004 SCT025
     FM310300 12008KT P6SM SCT020=



000
FTUS44 KCRP 301400 AAB
TAFALI
TAF AMD
KALI 301459Z 3015/3112 08003KT P6SM BKN003
     FM301600 11004KT P6SM SCT005
     FM310300 12008KT P6SM FEW015 SCT060=



000
FTUS44 KCRP 301300 AAA
TAFALI
TAF AMD
KALI 301355Z 3014/3112 04004KT 1/4SM FG VV002
     FM301500 09006KT 4SM BR SCT005
     FM301600 11004KT P6SM FEW250
     FM310300 12008KT P6SM FEW015 SCT060=



000
FTUS44 KCRP 301300 AAA
TAFALI
TAF AMD
KALI 301308Z 3013/3112 VRB03KT 4SM BR BKN003
     FM301500 09006KT P6SM SCT040
      TEMPO 3015/3016 5SM BR BKN015
     FM310300 12008KT P6SM FEW015 SCT060=



000
FTUS44 KCRP 301200 AAA
TAFVCT
TAF AMD
KVCT 301243Z 3013/3112 04004KT P6SM BKN020
     FM301600 VRB05KT P6SM SCT035
     FM310200 15008KT P6SM SCT040
     FM310800 03003KT 5SM BR SCT015 BKN050=



000
FTUS44 KCRP 301200 AAA
TAFCRP
TAF AMD
KCRP 301238Z 3013/3112 04006KT 3SM BR BKN010
      TEMPO 3013/3015 1SM BR OVC002
     FM301500 05008KT P6SM SCT035
      TEMPO 3015/3016 BKN020
     FM310300 12008KT P6SM SCT020=



000
FTUS44 KCRP 301100
TAFALI
TAF
KALI 301120Z 3012/3112 VRB03KT 5SM BR FEW020
     FM301500 09006KT P6SM SCT040
     FM310300 12008KT P6SM FEW015 SCT060=



000
FTUS44 KCRP 301100
TAFVCT
TAF
KVCT 301120Z 3012/3112 VRB03KT 5SM BR SCT020
      TEMPO 3012/3014 2SM BR BKN020
     FM301600 VRB05KT P6SM SCT035
     FM310200 15008KT P6SM SCT040
     FM310800 03003KT 5SM BR SCT015 BKN050=



000
FTUS44 KCRP 301100
TAFCRP
TAF
KCRP 301120Z 3012/3112 04006KT P6SM SCT020
     FM301500 05008KT P6SM SCT035
     FM310300 12008KT P6SM SCT020=



000
FTUS44 KCRP 301100
TAFLRD
TAF
KLRD 301120Z 3012/3112 VRB03KT P6SM FEW030 SCT200
     FM301800 VRB05KT P6SM SCT050
     FM310800 14006KT P6SM FEW015 SCT050=



000
FTUS44 KCRP 300800 AAA
TAFVCT
TAF AMD
KVCT 300804Z 3008/3106 VRB03KT 5SM BR SCT020
      TEMPO 3011/3014 2SM BR BKN020
     FM301600 VRB05KT P6SM SCT035
     FM310200 15008KT P6SM SCT040=



000
FTUS44 KCRP 300500
TAFCRP
TAF
KCRP 300537Z 3006/3106 15005KT P6SM FEW040 BKN200
     FM300800 VRB03KT P6SM SCT020
     FM301500 05006KT P6SM SCT035
     FM310300 12008KT P6SM SCT020 SCT100=



000
FTUS44 KCRP 300500
TAFLRD
TAF
KLRD 300537Z 3006/3106 VRB06KT P6SM FEW020 SCT200
     FM301800 VRB05KT P6SM SCT050=



000
FTUS44 KCRP 300500
TAFVCT
TAF
KVCT 300537Z 3006/3106 VRB06KT P6SM VCSH SCT025 BKN070
      TEMPO 3006/3010 BKN020
     FM301000 VRB03KT 5SM BR SCT020
      TEMPO 3011/3014 2SM BR BKN020
     FM301600 VRB05KT P6SM SCT035
     FM310200 15008KT P6SM SCT040=



000
FTUS44 KCRP 300500
TAFALI
TAF
KALI 300537Z 3006/3106 10007KT P6SM SCT200
     FM300800 VRB03KT 5SM BR FEW020
      TEMPO 3012/3015 2SM BR
     FM301500 05006KT P6SM SCT040
     FM310300 12008KT P6SM FEW015 SCT060=



000
FTUS44 KCRP 292300
TAFLRD
TAF
KLRD 292320Z 3000/3024 VRB06KT P6SM SCT080
     FM301500 13007KT P6SM BKN050=



000
FTUS44 KCRP 292300
TAFCRP
TAF
KCRP 292320Z 3000/3024 11008KT P6SM SCT040
     FM300800 VRB03KT P6SM SCT015
      TEMPO 3010/3013 5SM BR
     FM301500 05006KT P6SM SCT035=



000
FTUS44 KCRP 292300
TAFVCT
TAF
KVCT 292320Z 3000/3024 VRB06KT P6SM VCSH SCT035 BKN070
     FM300700 VRB03KT 5SM BR SCT020
      TEMPO 3011/3014 2SM BR
     FM301600 VRB05KT P6SM SCT030=



000
FTUS44 KCRP 292300
TAFALI
TAF
KALI 292320Z 3000/3024 10007KT P6SM SCT080
     FM300800 VRB03KT 5SM BR SCT015
      TEMPO 3012/3015 2SM BR
     FM301500 05006KT P6SM SCT040=



000
FTUS44 KCRP 292000 AAA
TAFVCT
TAF AMD
KVCT 292041Z 2921/3018 04006KT P6SM VCSH SCT035 BKN250
     FM300600 VRB03KT P6SM SCT020
     FM300900 VRB03KT 5SM BR SCT020
      TEMPO 3011/3014 2SM BR
     FM301500 VRB05KT P6SM SCT030=



000
FTUS44 KCRP 291700
TAFCRP
TAF
KCRP 291734Z 2918/3018 04004KT P6SM FEW025 SCT100
     FM291900 08008KT P6SM SCT035 BKN250
     FM300800 VRB03KT P6SM SCT015
      TEMPO 3010/3013 5SM BR
     FM301500 04006KT P6SM SCT030=



000
FTUS44 KCRP 291700
TAFALI
TAF
KALI 291734Z 2918/3018 VRB05KT P6SM SCT040
     FM300800 VRB03KT 5SM BR SCT015
      TEMPO 3012/3015 2SM BR
     FM301500 04006KT P6SM SCT030=



000
FTUS44 KCRP 291700
TAFLRD
TAF
KLRD 291734Z 2918/3018 VRB05KT P6SM SCT030 SCT100
     FM292100 09007KT P6SM FEW060 BKN250
     FM300900 10003KT P6SM FEW020
     FM301500 11004KT P6SM BKN100=



000
FTUS44 KCRP 291700
TAFVCT
TAF
KVCT 291734Z 2918/3018 04006KT P6SM SCT035 BKN250
     FM300600 VRB03KT P6SM SCT020
     FM300900 VRB03KT 5SM BR SCT020
      TEMPO 3011/3014 2SM BR
     FM301500 VRB05KT P6SM SCT030=



000
FTUS44 KCRP 291100
TAFVCT
TAF
KVCT 291120Z 2912/3012 VRB02KT P6SM BKN060
      TEMPO 2912/2913 3SM BR BKN010
     FM291600 03006KT P6SM SCT025 BKN100
     FM291800 02004KT P6SM SCT035 BKN250
     FM300600 VRB03KT P6SM SCT020=



000
FTUS44 KCRP 291100
TAFCRP
TAF
KCRP 291120Z 2912/3012 VRB03KT P6SM BKN060
      TEMPO 2912/2913 5SM BR BKN015
     FM291400 04004KT P6SM FEW025 SCT100
     FM291900 08008KT P6SM SCT035 BKN250
     FM300800 VRB03KT P6SM SCT015=



000
FTUS44 KCRP 291100
TAFLRD
TAF
KLRD 291120Z 2912/3012 13004KT P6SM SKC
     FM291500 VRB05KT P6SM SCT030 SCT100
     FM292100 09007KT P6SM FEW060 BKN250
     FM300900 10003KT P6SM FEW020=



000
FTUS44 KCRP 291100
TAFALI
TAF
KALI 291120Z 2912/3012 VRB02KT P6SM SCT015 BKN060
      TEMPO 2912/2914 3SM BR BKN010
     FM291500 VRB05KT P6SM SCT035 BKN060
     FM291800 08006KT P6SM SCT050
     FM300800 VRB03KT 5SM BR SCT015=



000
FTUS44 KCRP 290900 AAA
TAFVCT
TAF AMD
KVCT 290926Z 2909/3006 VRB03KT P6SM FEW005 FEW060
     FM291100 VRB02KT 2SM BR SCT004
      TEMPO 2911/2913 1/4SM FG BKN004
     FM291400 36004KT 5SM BR BKN009 OVC015
     FM291600 03006KT P6SM BKN025 BKN100
     FM291800 02004KT P6SM SCT035 BKN250=



000
FTUS44 KCRP 290900 AAA
TAFCRP
TAF AMD
KCRP 290925Z 2909/3006 VRB03KT P6SM FEW018 SCT060 BKN250
     FM291100 VRB03KT 5SM BR SCT008 BKN015
      TEMPO 2911/2913 2SM BR BKN008
     FM291400 04004KT P6SM SCT025 SCT100
     FM291900 08008KT P6SM SCT035 BKN250=



000
FTUS44 KCRP 290900 AAA
TAFALI
TAF AMD
KALI 290922Z 2909/3006 VRB03KT P6SM FEW007 SCT015
     FM291200 VRB02KT 2SM BR SCT015
      TEMPO 2912/2914 1/4SM FG BKN004
     FM291500 VRB05KT P6SM BKN025 BKN100
     FM291800 08006KT P6SM SCT035=



000
FTUS44 KCRP 290500
TAFALI
TAF
KALI 290523Z 2906/3006 15005KT P6SM FEW060 BKN250
     FM290700 VRB03KT 4SM BR FEW007 SCT015
     FM290900 VRB02KT 2SM BR SCT015
      TEMPO 2909/2913 1/4SM FG BKN004
     FM291500 VRB05KT P6SM BKN025 BKN100
     FM291800 08006KT P6SM SCT035=



000
FTUS44 KCRP 290500
TAFCRP
TAF
KCRP 290523Z 2906/3006 15006KT P6SM FEW018 SCT060 BKN250
     FM290900 VRB03KT 5SM BR SCT008 BKN015
      TEMPO 2909/2913 2SM BR BKN008
     FM291400 04004KT P6SM SCT025 SCT100
     FM291900 08008KT P6SM SCT035 BKN250=



000
FTUS44 KCRP 290500
TAFLRD
TAF
KLRD 290523Z 2906/3006 15006KT P6SM BKN250
     FM291000 13004KT 6SM BR SCT015
      TEMPO 2911/2915 3SM BR BKN012
     FM291500 VRB05KT P6SM SCT030 SCT100
     FM292100 09007KT P6SM FEW060 BKN250=



000
FTUS44 KCRP 290500
TAFVCT
TAF
KVCT 290523Z 2906/3006 VRB03KT P6SM FEW005 FEW060
     FM290900 VRB02KT 2SM BR SCT004
      TEMPO 2909/2913 1/4SM FG BKN004
     FM291400 36004KT 5SM BR BKN009 OVC015
     FM291600 03006KT P6SM BKN025 BKN100
     FM291800 02004KT P6SM SCT035 BKN250=



000
FTUS44 KCRP 282300
TAFLRD
TAF
KLRD 282340Z 2900/2924 15006KT P6SM BKN250
     FM291000 13004KT 6SM BR SCT015
      TEMPO 2911/2915 3SM BR BKN012
     FM291500 VRB05KT P6SM SCT030 SCT100
     FM292100 09007KT P6SM BKN250=



000
FTUS44 KCRP 282300
TAFVCT
TAF
KVCT 282340Z 2900/2924 16007KT P6SM FEW040 BKN250
     FM290600 VRB03KT 4SM BR SCT005
     FM290800 VRB02KT 1/4SM FG BKN004
     FM291400 36004KT 5SM BR BKN009 OVC015
     FM291600 03006KT P6SM BKN025 BKN100
     FM291800 02004KT P6SM SCT035 BKN250=



000
FTUS44 KCRP 282300
TAFCRP
TAF
KCRP 282340Z 2900/2924 14012KT P6SM FEW040 SCT250
     FM290200 15006KT P6SM SCT018 BKN250
     FM290900 VRB03KT 5SM BR SCT008 BKN015
      TEMPO 2909/2913 2SM BR BKN008
     FM291400 04004KT P6SM SCT025 SCT100
     FM291900 08008KT P6SM SCT035 BKN250=



000
FTUS44 KCRP 282300
TAFALI
TAF
KALI 282340Z 2900/2924 15011KT P6SM FEW050 SCT250
     FM290200 15005KT P6SM BKN250
     FM290700 VRB03KT 4SM BR FEW007 SCT015
     FM290900 VRB02KT 2SM BR SCT015
      TEMPO 2909/2913 1/4SM FG BKN004
     FM291500 VRB05KT P6SM BKN025 BKN100
     FM291800 08006KT P6SM SCT035=



000
FTUS44 KCRP 281700
TAFALI
TAF
KALI 281721Z 2818/2918 18012KT P6SM BKN040
     FM282200 14011KT P6SM SCT050
     FM290200 16006KT P6SM FEW025 SCT250
     FM290700 VRB03KT 4SM BR FEW007 SCT015
     FM291000 VRB02KT 1/2SM FG BKN004
     FM291400 04005KT P6SM SCT025 BKN100
      TEMPO 2914/2918 BKN025=



000
FTUS44 KCRP 281700
TAFLRD
TAF
KLRD 281721Z 2818/2918 14007KT P6SM SKC
     FM282300 12008KT P6SM SCT050 SCT250
     FM291000 13004KT 6SM BR SCT015
      TEMPO 2911/2915 4SM BR BKN015
     FM291500 14005KT P6SM SCT030 SCT100=



000
FTUS44 KCRP 281700
TAFVCT
TAF
KVCT 281721Z 2818/2918 18009KT P6SM SCT035 BKN060
     FM290000 16007KT P6SM FEW025 SCT250
     FM290400 VRB03KT 4SM BR SCT005
     FM290800 VRB02KT 1/2SM FG BKN004
     FM291300 36004KT 5SM BR BKN009 OVC015
     FM291600 03006KT P6SM BKN025 BKN100=



000
FTUS44 KCRP 281700
TAFCRP
TAF
KCRP 281721Z 2818/2918 16012G18KT P6SM SCT035 BKN060
     FM282100 14014KT P6SM SCT050
     FM290100 15009KT P6SM SCT018 SCT250
     FM290900 VRB03KT 5SM BR SCT008 BKN015
      TEMPO 2909/2913 3SM BR BKN008
     FM291400 03004KT P6SM SCT025 SCT100=



000
FTUS44 KCRP 281100 AAA
TAFALI
TAF AMD
KALI 281159Z 2812/2912 16004KT 3SM BR FEW015 SCT250
      TEMPO 2812/2814 00000KT 1SM BR BKN015
     FM281600 17009KT P6SM SCT030 BKN250
     FM282200 14011KT P6SM FEW050 SCT250
     FM290200 16006KT P6SM FEW025 SCT250
     FM290800 VRB03KT 2SM BR FEW009 SCT015
     FM291000 VRB02KT 1/2SM FG OVC002=



000
FTUS44 KCRP 281100
TAFVCT
TAF
KVCT 281131Z 2812/2912 17005KT 6SM BR SCT015
      TEMPO 2812/2813 4SM BR BKN015
     FM281600 16009KT P6SM SCT030 BKN250
     FM290200 16004KT P6SM FEW030 BKN200
     FM290700 VRB03KT 2SM BR FEW005
     FM290900 VRB02KT 3/4SM BR BKN002=



000
FTUS44 KCRP 281100
TAFALI
TAF
KALI 281131Z 2812/2912 16004KT P6SM FEW015 SCT250
      TEMPO 2812/2814 00000KT 4SM BR BKN015
     FM281600 17009KT P6SM SCT030 BKN250
     FM282200 14011KT P6SM FEW050 SCT250
     FM290200 16006KT P6SM FEW025 SCT250
     FM290800 VRB03KT 2SM BR FEW009 SCT015
     FM291000 VRB02KT 1/2SM FG OVC002=



000
FTUS44 KCRP 281100
TAFLRD
TAF
KLRD 281131Z 2812/2912 15008KT P6SM FEW015 SCT250
     FM290000 13008KT P6SM FEW050 BKN200
     FM291000 12004KT 6SM BR SCT015
      TEMPO 2910/2912 4SM BR BKN015=



000
FTUS44 KCRP 281100
TAFCRP
TAF
KCRP 281131Z 2812/2912 17008KT P6SM FEW020 SCT050
     FM281600 16012G18KT P6SM SCT030 BKN060
     FM282100 14014KT P6SM FEW050 BKN250
     FM290100 15009KT P6SM FEW030 SCT250
     FM290900 VRB03KT 4SM BR BKN015
      TEMPO 2909/2912 2SM BR BKN009=



000
FTUS44 KCRP 281000 AAA
TAFALI
TAF AMD
KALI 281059Z 2811/2906 16004KT P6SM FEW015 SCT250
      TEMPO 2811/2814 00000KT 4SM BR BKN015
     FM281600 17009KT P6SM SCT030 BKN250
     FM282200 14011KT P6SM FEW050 SCT250
     FM290200 16006KT P6SM FEW025 SCT250=



000
FTUS44 KCRP 280500
TAFVCT
TAF
KVCT 280531Z 2806/2906 16006KT P6SM SCT250
     FM280900 17005KT 6SM BR SCT015
      TEMPO 2809/2813 4SM BR BKN015
     FM281600 16009KT P6SM SCT030 BKN250
     FM290200 16004KT P6SM FEW030 BKN200=



000
FTUS44 KCRP 280500
TAFLRD
TAF
KLRD 280531Z 2806/2906 15008KT P6SM FEW015 SCT250
     FM290000 13008KT P6SM FEW050 BKN200=



000
FTUS44 KCRP 280500
TAFALI
TAF
KALI 280531Z 2806/2906 16007KT P6SM FEW050
     FM280900 16004KT 6SM BR SCT015 BKN250
      TEMPO 2810/2814 3SM BR BKN015
     FM281600 17009KT P6SM SCT030 BKN250
     FM282200 14011KT P6SM FEW050 SCT250
     FM290200 16006KT P6SM FEW025 SCT250=



000
FTUS44 KCRP 280500
TAFCRP
TAF
KCRP 280531Z 2806/2906 17008KT P6SM FEW020 SCT050
     FM281600 16012G18KT P6SM SCT030 BKN060
     FM282100 14014KT P6SM FEW050 BKN250
     FM290100 15009KT P6SM FEW030 SCT250=



000
FTUS44 KCRP 272300
TAFVCT
TAF
KVCT 272334Z 2800/2824 16013KT P6SM FEW040
     FM280300 16006KT P6SM SCT250
     FM280900 17005KT 6SM BR BKN015
      TEMPO 2809/2813 4SM BR SCT015
     FM281600 16009KT P6SM SCT030 BKN250=



000
FTUS44 KCRP 272300
TAFCRP
TAF
KCRP 272334Z 2800/2824 15015G22KT P6SM SCT035
     FM280300 16012KT P6SM FEW030
     FM280700 17007KT P6SM SCT015 SCT150
     FM281600 16012G18KT P6SM SCT030 BKN250
     FM282100 13014KT P6SM FEW040 SCT250=



000
FTUS44 KCRP 272300
TAFLRD
TAF
KLRD 272334Z 2800/2824 15008KT P6SM SCT250=



000
FTUS44 KCRP 272300
TAFALI
TAF
KALI 272334Z 2800/2824 14015KT P6SM SCT050
     FM280200 15007KT P6SM FEW040
     FM280900 16004KT 6SM BR BKN015
      TEMPO 2809/2813 3SM BR
     FM281600 16007KT P6SM FEW020
     FM282200 13010KT P6SM FEW050 SCT250=



000
FTUS44 KCRP 272200 AAA
TAFLRD
TAF AMD
KLRD 272214Z 2722/2818 14013KT P6SM SKC
     FM280900 15010KT P6SM SCT015=



000
FTUS44 KCRP 272200 AAA
TAFALI
TAF AMD
KALI 272213Z 2722/2818 14016G20KT P6SM SCT050
     FM280200 15010KT P6SM FEW040
     FM280900 16004KT 6SM BR SCT015 SCT150
     FM281400 16007KT P6SM FEW020=



000
FTUS44 KCRP 272200 AAA
TAFCRP
TAF AMD
KCRP 272212Z 2722/2818 15016G22KT P6SM SCT040
     FM280300 16012KT P6SM SKC
     FM280700 17007KT P6SM SCT015 SCT150
     FM281600 16012KT P6SM SCT030=



    US Dept of Commerce
    National Oceanic and Atmospheric Administration
    National Weather Service
    1325 East West Highway
    Silver Spring, MD 20910
    Page Author: NWS Internet Services Team
Disclaimer
Information Quality
Credits
Glossary
Privacy Policy
Freedom of Information Act (FOIA)
About Us
Career Opportunities